createdAt,value
2017-06-14T00:00:03.824Z,1004.21
2017-06-14T00:01:03.862Z,1004.23
2017-06-14T00:02:03.901Z,1004.19
2017-06-14T00:03:03.938Z,1004.22
2017-06-14T00:04:03.979Z,1004.23
2017-06-14T00:05:04.017Z,1004.19
2017-06-14T00:06:04.054Z,1004.2
2017-06-14T00:07:04.092Z,1004.21
2017-06-14T00:08:04.131Z,1004.18
2017-06-14T00:09:04.172Z,1004.15
2017-06-14T00:10:04.209Z,1004.18
2017-06-14T00:11:04.247Z,1004.21
2017-06-14T00:12:04.286Z,1004.18
2017-06-14T00:13:04.324Z,1004.2
2017-06-14T00:14:04.363Z,1004.18
2017-06-14T00:15:04.401Z,1004.14
2017-06-14T00:16:04.438Z,1004.16
2017-06-14T00:17:04.476Z,1004.16
2017-06-14T00:18:04.516Z,1004.15
2017-06-14T00:19:04.553Z,1004.13
2017-06-14T00:20:04.592Z,1004.19
2017-06-14T00:21:04.630Z,1004.16
2017-06-14T00:22:04.669Z,1004.21
2017-06-14T00:23:04.709Z,1004.15
2017-06-14T00:24:04.745Z,1004.16
2017-06-14T00:25:04.784Z,1004.15
2017-06-14T00:26:04.823Z,1004.15
2017-06-14T00:27:04.863Z,1004.12
2017-06-14T00:28:04.900Z,1004.11
2017-06-14T00:29:04.939Z,1004.11
2017-06-14T00:30:04.976Z,1004.1
2017-06-14T00:31:05.016Z,1004.09
2017-06-14T00:32:05.055Z,1004.09
2017-06-14T00:33:05.094Z,1004.06
2017-06-14T00:34:05.132Z,1004.06
2017-06-14T00:35:05.169Z,1004.08
2017-06-14T00:36:05.208Z,1004.1
2017-06-14T00:37:05.246Z,1004.1
2017-06-14T00:38:05.284Z,1004.07
2017-06-14T00:39:05.323Z,1004.09
2017-06-14T00:40:05.362Z,1004.07
2017-06-14T00:41:05.400Z,1004.11
2017-06-14T00:42:05.438Z,1004.06
2017-06-14T00:43:05.477Z,1004.06
2017-06-14T00:44:05.515Z,1004.06
2017-06-14T00:45:05.554Z,1004.08
2017-06-14T00:46:05.593Z,1004.09
2017-06-14T00:47:05.630Z,1004.11
2017-06-14T00:48:05.669Z,1004.08
2017-06-14T00:49:05.708Z,1004.07
2017-06-14T00:50:05.745Z,1004.12
2017-06-14T00:51:05.783Z,1004.07
2017-06-14T00:52:05.821Z,1004.11
2017-06-14T00:53:05.860Z,1004.15
2017-06-14T00:54:05.898Z,1004.09
2017-06-14T00:55:05.937Z,1004.12
2017-06-14T00:56:05.976Z,1004.1
2017-06-14T00:57:06.013Z,1004.14
2017-06-14T00:58:06.052Z,1004.11
2017-06-14T00:59:06.091Z,1004.1
2017-06-14T01:00:06.129Z,1004.09
2017-06-14T01:01:06.167Z,1004.06
2017-06-14T01:02:06.195Z,1004.04
2017-06-14T01:03:06.232Z,1004.05
2017-06-14T01:04:06.270Z,1004.05
2017-06-14T01:05:06.310Z,1004.08
2017-06-14T01:06:06.348Z,1004.04
2017-06-14T01:07:06.386Z,1004.07
2017-06-14T01:08:06.424Z,1004.03
2017-06-14T01:09:06.463Z,1004.04
2017-06-14T01:10:06.501Z,1004.09
2017-06-14T01:11:06.539Z,1004.07
2017-06-14T01:12:06.577Z,1004.04
2017-06-14T01:13:06.642Z,1004.11
2017-06-14T01:14:06.654Z,1004.09
2017-06-14T01:15:06.692Z,1004.06
2017-06-14T01:16:06.731Z,1004.07
2017-06-14T01:17:06.768Z,1004.1
2017-06-14T01:18:06.807Z,1004.05
2017-06-14T01:19:06.844Z,1004.01
2017-06-14T01:20:06.882Z,1004.03
2017-06-14T01:21:06.922Z,1004.03
2017-06-14T01:22:06.961Z,1004.06
2017-06-14T01:23:06.997Z,1004.07
2017-06-14T01:24:07.035Z,1004.08
2017-06-14T01:25:07.074Z,1004.11
2017-06-14T01:26:07.111Z,1004.09
2017-06-14T01:27:07.150Z,1004.09
2017-06-14T01:28:07.189Z,1004.13
2017-06-14T01:29:07.227Z,1004.14
2017-06-14T01:30:07.264Z,1004.15
2017-06-14T01:31:07.302Z,1004.14
2017-06-14T01:32:07.342Z,1004.14
2017-06-14T01:33:07.384Z,1004.12
2017-06-14T01:34:07.418Z,1004.11
2017-06-14T01:35:07.455Z,1004.1
2017-06-14T01:36:07.493Z,1004.1
2017-06-14T01:37:07.531Z,1004.1
2017-06-14T01:38:07.569Z,1004.11
2017-06-14T01:39:07.608Z,1004.09
2017-06-14T01:40:07.645Z,1004.14
2017-06-14T01:41:07.684Z,1004.11
2017-06-14T01:42:07.721Z,1004.1
2017-06-14T01:43:07.761Z,1004.12
2017-06-14T01:44:07.799Z,1004.14
2017-06-14T01:45:07.843Z,1004.11
2017-06-14T01:46:07.873Z,1004.14
2017-06-14T01:47:07.912Z,1004.12
2017-06-14T01:48:07.948Z,1004.11
2017-06-14T01:49:07.987Z,1004.08
2017-06-14T01:50:08.025Z,1004.08
2017-06-14T01:51:08.064Z,1004.14
2017-06-14T01:52:08.101Z,1004.1
2017-06-14T01:53:08.139Z,1004.12
2017-06-14T01:54:08.178Z,1004.13
2017-06-14T01:55:08.216Z,1004.12
2017-06-14T01:56:08.254Z,1004.13
2017-06-14T01:57:08.292Z,1004.13
2017-06-14T01:58:08.330Z,1004.11
2017-06-14T01:59:08.367Z,1004.12
2017-06-14T02:00:08.405Z,1004.11
2017-06-14T02:01:08.443Z,1004.09
2017-06-14T02:02:08.482Z,1004.08
2017-06-14T02:03:08.519Z,1004.11
2017-06-14T02:04:08.557Z,1004.1
2017-06-14T02:05:08.595Z,1004.09
2017-06-14T02:06:08.634Z,1004.12
2017-06-14T02:07:08.671Z,1004.12
2017-06-14T02:08:08.710Z,1004.12
2017-06-14T02:09:08.748Z,1004.1
2017-06-14T02:10:08.785Z,1004.12
2017-06-14T02:11:08.824Z,1004.14
2017-06-14T02:12:08.861Z,1004.13
2017-06-14T02:13:08.899Z,1004.14
2017-06-14T02:14:08.938Z,1004.18
2017-06-14T02:15:08.975Z,1004.15
2017-06-14T02:16:09.013Z,1004.17
2017-06-14T02:17:09.050Z,1004.17
2017-06-14T02:18:09.087Z,1004.14
2017-06-14T02:19:09.125Z,1004.1
2017-06-14T02:20:09.164Z,1004.12
2017-06-14T02:21:09.201Z,1004.07
2017-06-14T02:22:09.239Z,1004.11
2017-06-14T02:23:09.280Z,1004.11
2017-06-14T02:24:09.317Z,1004.1
2017-06-14T02:25:09.352Z,1004.16
2017-06-14T02:26:09.391Z,1004.13
2017-06-14T02:27:09.428Z,1004.16
2017-06-14T02:28:09.467Z,1004.13
2017-06-14T02:29:09.503Z,1004.1
2017-06-14T02:30:09.542Z,1004.14
2017-06-14T02:31:09.580Z,1004.12
2017-06-14T02:32:09.617Z,1004.12
2017-06-14T02:33:09.656Z,1004.14
2017-06-14T02:34:09.695Z,1004.18
2017-06-14T02:35:09.731Z,1004.19
2017-06-14T02:36:09.769Z,1004.21
2017-06-14T02:37:09.808Z,1004.22
2017-06-14T02:38:09.844Z,1004.26
2017-06-14T02:39:09.882Z,1004.27
2017-06-14T02:40:09.920Z,1004.23
2017-06-14T02:41:09.957Z,1004.24
2017-06-14T02:42:09.996Z,1004.26
2017-06-14T02:43:10.033Z,1004.27
2017-06-14T02:44:10.071Z,1004.3
2017-06-14T02:45:10.108Z,1004.28
2017-06-14T02:46:10.145Z,1004.3
2017-06-14T02:47:10.184Z,1004.35
2017-06-14T02:48:10.221Z,1004.31
2017-06-14T02:49:10.259Z,1004.33
2017-06-14T02:50:10.296Z,1004.33
2017-06-14T02:51:10.334Z,1004.33
2017-06-14T02:52:10.375Z,1004.36
2017-06-14T02:53:10.411Z,1004.33
2017-06-14T02:54:10.447Z,1004.34
2017-06-14T02:55:10.486Z,1004.32
2017-06-14T02:56:10.524Z,1004.3
2017-06-14T02:57:10.562Z,1004.31
2017-06-14T02:58:10.599Z,1004.36
2017-06-14T02:59:10.638Z,1004.36
2017-06-14T03:00:10.675Z,1004.32
2017-06-14T03:01:10.711Z,1004.32
2017-06-14T03:02:10.752Z,1004.32
2017-06-14T03:03:10.788Z,1004.32
2017-06-14T03:04:10.826Z,1004.4
2017-06-14T03:05:10.863Z,1004.34
2017-06-14T03:06:10.901Z,1004.39
2017-06-14T03:07:10.939Z,1004.39
2017-06-14T03:08:10.979Z,1004.4
2017-06-14T03:09:11.013Z,1004.37
2017-06-14T03:10:11.052Z,1004.41
2017-06-14T03:11:11.090Z,1004.44
2017-06-14T03:12:11.127Z,1004.42
2017-06-14T03:13:11.164Z,1004.41
2017-06-14T03:14:11.203Z,1004.44
2017-06-14T03:15:11.241Z,1004.42
2017-06-14T03:16:11.277Z,1004.43
2017-06-14T03:17:11.316Z,1004.42
2017-06-14T03:18:11.355Z,1004.46
2017-06-14T03:19:11.393Z,1004.43
2017-06-14T03:20:11.454Z,1004.44
2017-06-14T03:21:11.467Z,1004.45
2017-06-14T03:22:11.505Z,1004.45
2017-06-14T03:23:11.546Z,1004.42
2017-06-14T03:24:11.581Z,1004.42
2017-06-14T03:25:11.620Z,1004.39
2017-06-14T03:26:11.657Z,1004.44
2017-06-14T03:27:11.696Z,1004.42
2017-06-14T03:28:11.735Z,1004.38
2017-06-14T03:29:11.773Z,1004.41
2017-06-14T03:30:11.812Z,1004.4
2017-06-14T03:31:11.852Z,1004.42
2017-06-14T03:32:11.888Z,1004.46
2017-06-14T03:33:11.928Z,1004.5
2017-06-14T03:34:11.966Z,1004.54
2017-06-14T03:35:12.005Z,1004.51
2017-06-14T03:36:12.045Z,1004.5
2017-06-14T03:37:12.084Z,1004.48
2017-06-14T03:38:12.123Z,1004.56
2017-06-14T03:39:12.163Z,1004.55
2017-06-14T03:40:12.203Z,1004.5
2017-06-14T03:41:12.242Z,1004.52
2017-06-14T03:42:12.284Z,1004.58
2017-06-14T03:43:12.326Z,1004.58
2017-06-14T03:44:12.363Z,1004.6
2017-06-14T03:45:12.402Z,1004.62
2017-06-14T03:46:12.443Z,1004.61
2017-06-14T03:47:12.484Z,1004.61
2017-06-14T03:48:12.524Z,1004.62
2017-06-14T03:49:12.565Z,1004.66
2017-06-14T03:50:12.606Z,1004.6
2017-06-14T03:51:12.646Z,1004.65
2017-06-14T03:52:12.685Z,1004.69
2017-06-14T03:53:12.727Z,1004.67
2017-06-14T03:54:12.769Z,1004.69
2017-06-14T03:55:12.811Z,1004.76
2017-06-14T03:56:12.851Z,1004.76
2017-06-14T03:57:12.892Z,1004.78
2017-06-14T03:58:12.934Z,1004.73
2017-06-14T03:59:12.976Z,1004.77
2017-06-14T04:00:13.018Z,1004.77
2017-06-14T04:01:13.059Z,1004.82
2017-06-14T04:02:13.104Z,1004.78
2017-06-14T04:03:13.145Z,1004.74
2017-06-14T04:04:13.187Z,1004.75
2017-06-14T04:05:13.240Z,1004.76
2017-06-14T04:06:13.275Z,1004.78
2017-06-14T04:07:13.314Z,1004.78
2017-06-14T04:08:13.358Z,1004.8
2017-06-14T04:09:13.402Z,1004.8
2017-06-14T04:10:13.445Z,1004.8
2017-06-14T04:11:13.487Z,1004.85
2017-06-14T04:12:13.531Z,1004.85
2017-06-14T04:13:13.575Z,1004.87
2017-06-14T04:14:13.618Z,1004.88
2017-06-14T04:15:13.662Z,1004.89
2017-06-14T04:16:13.707Z,1004.92
2017-06-14T04:17:13.751Z,1004.92
2017-06-14T04:18:13.795Z,1004.96
2017-06-14T04:19:13.838Z,1004.94
2017-06-14T04:20:13.883Z,1004.95
2017-06-14T04:21:13.929Z,1004.93
2017-06-14T04:22:13.987Z,1004.92
2017-06-14T04:23:14.017Z,1004.93
2017-06-14T04:24:14.073Z,1004.99
2017-06-14T04:25:14.106Z,1005.03
2017-06-14T04:26:14.152Z,1005.01
2017-06-14T04:27:14.197Z,1004.98
2017-06-14T04:28:14.257Z,1005.01
2017-06-14T04:29:14.287Z,1004.99
2017-06-14T04:30:14.350Z,1004.99
2017-06-14T04:31:14.378Z,1004.99
2017-06-14T04:32:14.425Z,1004.95
2017-06-14T04:33:14.469Z,1004.98
2017-06-14T04:34:14.531Z,1004.97
2017-06-14T04:35:14.561Z,1004.99
2017-06-14T04:36:14.606Z,1005
2017-06-14T04:37:14.653Z,1004.98
2017-06-14T04:38:14.699Z,1005.02
2017-06-14T04:39:14.744Z,1005.01
2017-06-14T04:40:14.790Z,1005.05
2017-06-14T04:41:14.835Z,1005.03
2017-06-14T04:42:14.882Z,1005.04
2017-06-14T04:43:14.928Z,1004.99
2017-06-14T04:44:14.972Z,1004.99
2017-06-14T04:45:15.018Z,1004.98
2017-06-14T04:46:15.062Z,1005.05
2017-06-14T04:47:15.107Z,1005.07
2017-06-14T04:48:15.152Z,1005.08
2017-06-14T04:49:15.198Z,1005.05
2017-06-14T04:50:15.242Z,1005.09
2017-06-14T04:51:15.286Z,1005.11
2017-06-14T04:52:15.332Z,1005.11
2017-06-14T04:53:15.377Z,1005.08
2017-06-14T04:54:15.424Z,1005.07
2017-06-14T04:55:15.466Z,1005.05
2017-06-14T04:56:15.510Z,1005.08
2017-06-14T04:57:15.557Z,1005.06
2017-06-14T04:58:15.599Z,1005.06
2017-06-14T04:59:15.645Z,1005.03
2017-06-14T05:00:15.689Z,1005.07
2017-06-14T05:01:16.712Z,1005.05
2017-06-14T05:02:15.777Z,1005.06
2017-06-14T05:03:15.819Z,1005.07
2017-06-14T05:04:15.863Z,1005.11
2017-06-14T05:05:15.907Z,1005.13
2017-06-14T05:06:15.953Z,1005.07
2017-06-14T05:07:15.993Z,1005.09
2017-06-14T05:08:16.042Z,1005.11
2017-06-14T05:09:16.079Z,1005.09
2017-06-14T05:10:16.122Z,1005.09
2017-06-14T05:11:16.165Z,1005.08
2017-06-14T05:12:16.209Z,1005.06
2017-06-14T05:13:16.251Z,1005.13
2017-06-14T05:14:16.294Z,1005.13
2017-06-14T05:15:16.337Z,1005.12
2017-06-14T05:16:16.381Z,1005.12
2017-06-14T05:17:16.426Z,1005.17
2017-06-14T05:18:16.467Z,1005.15
2017-06-14T05:19:16.510Z,1005.18
2017-06-14T05:20:16.552Z,1005.17
2017-06-14T05:21:16.594Z,1005.16
2017-06-14T05:22:16.636Z,1005.14
2017-06-14T05:23:16.678Z,1005.14
2017-06-14T05:24:16.719Z,1005.07
2017-06-14T05:25:16.761Z,1005.15
2017-06-14T05:26:16.804Z,1005.12
2017-06-14T05:27:16.845Z,1005.12
2017-06-14T05:28:16.887Z,1005.12
2017-06-14T05:29:16.928Z,1005.16
2017-06-14T05:30:16.970Z,1005.18
2017-06-14T05:31:17.012Z,1005.17
2017-06-14T05:32:17.054Z,1005.2
2017-06-14T05:33:17.094Z,1005.21
2017-06-14T05:34:17.140Z,1005.21
2017-06-14T05:35:17.177Z,1005.23
2017-06-14T05:36:17.219Z,1005.23
2017-06-14T05:37:17.261Z,1005.25
2017-06-14T05:38:17.301Z,1005.28
2017-06-14T05:39:17.343Z,1005.36
2017-06-14T05:40:17.385Z,1005.38
2017-06-14T05:41:17.460Z,1005.31
2017-06-14T05:42:17.468Z,1005.39
2017-06-14T05:43:17.509Z,1005.39
2017-06-14T05:44:17.552Z,1005.39
2017-06-14T05:45:17.597Z,1005.47
2017-06-14T05:46:17.640Z,1005.47
2017-06-14T05:47:17.684Z,1005.42
2017-06-14T05:48:17.728Z,1005.44
2017-06-14T05:49:17.772Z,1005.44
2017-06-14T05:50:17.819Z,1005.48
2017-06-14T05:51:17.864Z,1005.46
2017-06-14T05:52:17.920Z,1005.53
2017-06-14T05:53:17.957Z,1005.51
2017-06-14T05:54:18.003Z,1005.5
2017-06-14T05:55:18.051Z,1005.5
2017-06-14T05:56:18.099Z,1005.48
2017-06-14T05:57:18.147Z,1005.52
2017-06-14T05:58:18.209Z,1005.5
2017-06-14T05:59:18.246Z,1005.5
2017-06-14T06:00:18.303Z,1005.56
2017-06-14T06:01:18.352Z,1005.58
2017-06-14T06:02:18.403Z,1005.56
2017-06-14T06:03:18.453Z,1005.53
2017-06-14T06:04:18.503Z,1005.57
2017-06-14T06:05:18.553Z,1005.59
2017-06-14T06:06:18.603Z,1005.6
2017-06-14T06:07:18.655Z,1005.66
2017-06-14T06:08:18.706Z,1005.65
2017-06-14T06:09:18.762Z,1005.65
2017-06-14T06:10:18.809Z,1005.63
2017-06-14T06:11:18.860Z,1005.7
2017-06-14T06:12:18.913Z,1005.65
2017-06-14T06:13:18.965Z,1005.68
2017-06-14T06:14:19.019Z,1005.71
2017-06-14T06:15:19.070Z,1005.7
2017-06-14T06:16:19.123Z,1005.71
2017-06-14T06:17:19.177Z,1005.73
2017-06-14T06:18:19.230Z,1005.75
2017-06-14T06:19:19.283Z,1005.77
2017-06-14T06:20:19.336Z,1005.78
2017-06-14T06:21:19.390Z,1005.77
2017-06-14T06:22:19.443Z,1005.8
2017-06-14T06:23:19.498Z,1005.82
2017-06-14T06:24:19.552Z,1005.84
2017-06-14T06:25:19.607Z,1005.85
2017-06-14T06:26:19.659Z,1005.84
2017-06-14T06:27:19.715Z,1005.84
2017-06-14T06:28:19.769Z,1005.88
2017-06-14T06:29:19.824Z,1005.87
2017-06-14T06:30:19.888Z,1005.88
2017-06-14T06:31:19.935Z,1005.89
2017-06-14T06:32:19.989Z,1005.86
2017-06-14T06:33:20.114Z,1005.89
2017-06-14T06:34:20.100Z,1005.88
2017-06-14T06:35:20.177Z,1005.9
2017-06-14T06:36:20.210Z,1005.92
2017-06-14T06:37:20.264Z,1005.91
2017-06-14T06:38:20.320Z,1005.92
2017-06-14T06:39:20.380Z,1005.9
2017-06-14T06:40:20.534Z,1005.9
2017-06-14T06:41:20.487Z,1005.9
2017-06-14T06:42:20.544Z,1005.73
2017-06-14T06:43:20.927Z,1005.87
2017-06-14T06:44:20.655Z,1005.76
2017-06-14T06:45:20.761Z,1005.87
2017-06-14T06:46:20.767Z,1005.75
2017-06-14T06:47:20.823Z,1005.85
2017-06-14T06:48:20.879Z,1005.86
2017-06-14T06:49:20.934Z,1005.87
2017-06-14T06:50:21.351Z,1005.86
2017-06-14T06:51:21.047Z,1005.84
2017-06-14T06:52:21.104Z,1005.67
2017-06-14T06:53:21.159Z,1005.77
2017-06-14T06:54:21.216Z,1005.72
2017-06-14T06:55:21.271Z,1005.72
2017-06-14T06:56:21.327Z,1005.71
2017-06-14T06:57:21.383Z,1005.74
2017-06-14T06:58:21.439Z,1005.73
2017-06-14T06:59:21.494Z,1005.72
2017-06-14T07:00:21.551Z,1005.77
2017-06-14T07:01:21.623Z,1005.73
2017-06-14T07:02:21.662Z,1005.73
2017-06-14T07:03:21.719Z,1005.74
2017-06-14T07:04:21.774Z,1005.75
2017-06-14T07:05:21.832Z,1005.75
2017-06-14T07:06:21.889Z,1005.76
2017-06-14T07:07:21.941Z,1005.74
2017-06-14T07:08:21.998Z,1005.75
2017-06-14T07:09:22.054Z,1005.77
2017-06-14T07:10:22.109Z,1005.76
2017-06-14T07:11:22.165Z,1005.73
2017-06-14T07:12:22.222Z,1005.72
2017-06-14T07:13:22.277Z,1005.78
2017-06-14T07:14:22.334Z,1005.79
2017-06-14T07:15:22.393Z,1005.84
2017-06-14T07:16:22.446Z,1005.8
2017-06-14T07:17:22.502Z,1005.83
2017-06-14T07:18:22.559Z,1005.82
2017-06-14T07:19:22.615Z,1005.86
2017-06-14T07:20:22.673Z,1005.84
2017-06-14T07:21:22.729Z,1005.64
2017-06-14T07:22:22.786Z,1005.87
2017-06-14T07:23:22.843Z,1005.88
2017-06-14T07:24:22.901Z,1005.88
2017-06-14T07:25:22.956Z,1005.72
2017-06-14T07:26:23.014Z,1005.86
2017-06-14T07:27:23.069Z,1005.91
2017-06-14T07:28:23.126Z,1005.88
2017-06-14T07:29:23.183Z,1005.92
2017-06-14T07:30:23.241Z,1005.89
2017-06-14T07:31:23.370Z,1005.89
2017-06-14T07:32:23.354Z,1005.77
2017-06-14T07:33:23.413Z,1005.76
2017-06-14T07:34:23.596Z,1005.9
2017-06-14T07:35:23.525Z,1005.78
2017-06-14T07:36:23.581Z,1005.77
2017-06-14T07:37:23.637Z,1005.83
2017-06-14T07:38:23.692Z,1005.77
2017-06-14T07:39:23.746Z,1005.78
2017-06-14T07:40:23.799Z,1005.83
2017-06-14T07:41:23.853Z,1005.82
2017-06-14T07:42:23.905Z,1005.76
2017-06-14T07:43:23.956Z,1005.81
2017-06-14T07:44:24.010Z,1005.82
2017-06-14T07:45:24.062Z,1005.82
2017-06-14T07:46:24.111Z,1005.82
2017-06-14T07:47:24.161Z,1005.86
2017-06-14T07:48:24.210Z,1005.84
2017-06-14T07:49:24.260Z,1005.8
2017-06-14T07:50:24.309Z,1005.8
2017-06-14T07:51:24.367Z,1005.81
2017-06-14T07:52:24.405Z,1005.87
2017-06-14T07:53:24.455Z,1006.1
2017-06-14T07:54:24.502Z,1006.07
2017-06-14T07:55:24.551Z,1006.06
2017-06-14T07:56:24.599Z,1006.11
2017-06-14T07:57:24.649Z,1006.05
2017-06-14T07:58:24.699Z,1006.04
2017-06-14T07:59:24.750Z,1006.09
2017-06-14T08:00:24.800Z,1006.18
2017-06-14T08:01:24.849Z,1006.08
2017-06-14T08:02:24.915Z,1006.03
2017-06-14T08:03:24.954Z,1005.85
2017-06-14T08:04:25.006Z,1005.9
2017-06-14T08:05:25.056Z,1005.89
2017-06-14T08:06:25.106Z,1005.9
2017-06-14T08:07:25.157Z,1005.91
2017-06-14T08:08:25.206Z,1005.94
2017-06-14T08:09:25.256Z,1005.94
2017-06-14T08:10:25.305Z,1005.96
2017-06-14T08:11:25.355Z,1006.21
2017-06-14T08:12:25.403Z,1005.97
2017-06-14T08:13:25.451Z,1006.04
2017-06-14T08:14:25.499Z,1006.2
2017-06-14T08:15:25.549Z,1006.16
2017-06-14T08:16:25.597Z,1006.22
2017-06-14T08:17:25.647Z,1006.14
2017-06-14T08:18:25.697Z,1006.23
2017-06-14T08:19:25.745Z,1006.23
2017-06-14T08:20:25.798Z,1005.93
2017-06-14T08:21:25.877Z,1006.17
2017-06-14T08:22:25.931Z,1005.94
2017-06-14T08:23:26.036Z,1005.9
2017-06-14T08:24:26.003Z,1006.24
2017-06-14T08:25:26.100Z,1005.87
2017-06-14T08:26:26.113Z,1005.81
2017-06-14T08:27:26.158Z,1005.85
2017-06-14T08:28:26.210Z,1006.09
2017-06-14T08:29:26.263Z,1005.83
2017-06-14T08:30:26.313Z,1005.86
2017-06-14T08:31:26.364Z,1005.95
2017-06-14T08:32:26.416Z,1006.06
2017-06-14T08:33:26.468Z,1006.07
2017-06-14T08:34:26.520Z,1006.03
2017-06-14T08:35:26.571Z,1005.95
2017-06-14T08:36:26.633Z,1005.93
2017-06-14T08:37:26.675Z,1005.98
2017-06-14T08:38:26.729Z,1006
2017-06-14T08:39:26.783Z,1006
2017-06-14T08:40:26.835Z,1005.73
2017-06-14T08:41:26.890Z,1005.71
2017-06-14T08:42:27.059Z,1005.71
2017-06-14T08:43:26.995Z,1006
2017-06-14T08:44:27.049Z,1005.85
2017-06-14T08:45:27.101Z,1005.95
2017-06-14T08:46:27.156Z,1006.05
2017-06-14T08:47:27.209Z,1006.08
2017-06-14T08:48:27.262Z,1006.01
2017-06-14T08:49:27.317Z,1006.04
2017-06-14T08:50:27.372Z,1006.01
2017-06-14T08:51:27.427Z,1006.07
2017-06-14T08:52:27.482Z,1006.06
2017-06-14T08:53:27.537Z,1005.8
2017-06-14T08:54:27.701Z,1005.78
2017-06-14T08:55:27.650Z,1005.72
2017-06-14T08:56:27.703Z,1005.76
2017-06-14T08:57:27.773Z,1005.83
2017-06-14T08:58:27.814Z,1006.05
2017-06-14T08:59:27.868Z,1006.12
2017-06-14T09:00:27.923Z,1006.11
2017-06-14T09:01:27.977Z,1006.11
2017-06-14T09:02:28.034Z,1006.07
2017-06-14T09:03:28.088Z,1006.01
2017-06-14T09:04:28.399Z,1005.94
2017-06-14T09:05:28.203Z,1006
2017-06-14T09:06:28.536Z,1005.99
2017-06-14T09:07:28.370Z,1006.04
2017-06-14T09:08:28.498Z,1005.78
2017-06-14T09:09:28.423Z,1005.72
2017-06-14T09:10:28.487Z,1005.69
2017-06-14T09:11:28.535Z,1005.74
2017-06-14T09:12:28.592Z,1005.73
2017-06-14T09:13:28.671Z,1005.71
2017-06-14T09:14:28.701Z,1005.78
2017-06-14T09:15:28.792Z,1005.78
2017-06-14T09:16:28.829Z,1006.1
2017-06-14T09:17:28.865Z,1005.77
2017-06-14T09:18:28.917Z,1005.72
2017-06-14T09:19:28.970Z,1005.79
2017-06-14T09:20:29.022Z,1005.79
2017-06-14T09:21:29.096Z,1005.8
2017-06-14T09:22:29.129Z,1005.93
2017-06-14T09:23:29.177Z,1006.05
2017-06-14T09:24:29.230Z,1006.03
2017-06-14T09:25:29.293Z,1005.92
2017-06-14T09:26:29.333Z,1005.91
2017-06-14T09:27:29.393Z,1005.91
2017-06-14T09:28:29.451Z,1005.59
2017-06-14T09:29:29.491Z,1005.65
2017-06-14T09:30:29.543Z,1005.61
2017-06-14T09:31:29.617Z,1005.59
2017-06-14T09:32:29.646Z,1005.58
2017-06-14T09:33:29.704Z,1005.61
2017-06-14T09:34:29.808Z,1005.69
2017-06-14T09:35:29.799Z,1005.58
2017-06-14T09:36:29.876Z,1005.89
2017-06-14T09:37:29.901Z,1005.82
2017-06-14T09:38:29.953Z,1005.63
2017-06-14T09:39:30.019Z,1005.9
2017-06-14T09:40:30.055Z,1005.87
2017-06-14T09:41:30.105Z,1005.88
2017-06-14T09:42:30.182Z,1005.88
2017-06-14T09:43:30.219Z,1005.92
2017-06-14T09:44:30.521Z,1005.69
2017-06-14T09:45:30.814Z,1005.66
2017-06-14T09:46:30.593Z,1005.94
2017-06-14T09:47:30.425Z,1005.93
2017-06-14T09:48:30.530Z,1005.91
2017-06-14T09:49:30.529Z,1005.89
2017-06-14T09:50:30.687Z,1005.86
2017-06-14T09:51:30.639Z,1005.88
2017-06-14T09:52:30.704Z,1005.91
2017-06-14T09:53:30.771Z,1005.58
2017-06-14T09:54:30.802Z,1005.62
2017-06-14T09:55:30.863Z,1005.64
2017-06-14T09:56:30.911Z,1005.9
2017-06-14T09:57:30.971Z,1005.93
2017-06-14T09:58:31.021Z,1005.9
2017-06-14T09:59:31.082Z,1005.9
2017-06-14T10:00:31.150Z,1005.9
2017-06-14T10:01:31.187Z,1005.85
2017-06-14T10:02:31.242Z,1005.87
2017-06-14T10:03:31.307Z,1005.88
2017-06-14T10:04:31.355Z,1005.92
2017-06-14T10:05:31.411Z,1005.94
2017-06-14T10:06:31.468Z,1006.01
2017-06-14T10:07:31.523Z,1005.97
2017-06-14T10:08:31.581Z,1005.98
2017-06-14T10:09:31.636Z,1005.93
2017-06-14T10:10:31.695Z,1005.89
2017-06-14T10:11:31.755Z,1005.74
2017-06-14T10:12:31.810Z,1005.81
2017-06-14T10:13:31.868Z,1005.64
2017-06-14T10:14:31.923Z,1005.78
2017-06-14T10:15:31.981Z,1005.95
2017-06-14T10:16:32.037Z,1005.76
2017-06-14T10:17:32.102Z,1005.68
2017-06-14T10:18:32.150Z,1005.66
2017-06-14T10:19:32.206Z,1006.02
2017-06-14T10:20:32.262Z,1005.97
2017-06-14T10:21:32.577Z,1005.95
2017-06-14T10:22:32.452Z,1005.96
2017-06-14T10:23:32.429Z,1005.91
2017-06-14T10:24:32.493Z,1005.86
2017-06-14T10:25:32.541Z,1005.57
2017-06-14T10:26:32.597Z,1005.59
2017-06-14T10:27:32.652Z,1005.51
2017-06-14T10:28:32.709Z,1005.79
2017-06-14T10:29:32.764Z,1005.81
2017-06-14T10:30:32.824Z,1005.79
2017-06-14T10:31:32.878Z,1005.77
2017-06-14T10:32:32.933Z,1005.74
2017-06-14T10:33:32.991Z,1005.76
2017-06-14T10:34:33.045Z,1005.75
2017-06-14T10:35:33.102Z,1005.68
2017-06-14T10:36:33.160Z,1005.69
2017-06-14T10:37:33.218Z,1005.67
2017-06-14T10:38:33.274Z,1005.69
2017-06-14T10:39:33.331Z,1005.63
2017-06-14T10:40:33.388Z,1005.36
2017-06-14T10:41:33.446Z,1005.63
2017-06-14T10:42:33.502Z,1005.61
2017-06-14T10:43:33.559Z,1005.6
2017-06-14T10:44:33.617Z,1005.47
2017-06-14T10:45:33.672Z,1005.57
2017-06-14T10:46:33.731Z,1005.61
2017-06-14T10:47:33.787Z,1005.7
2017-06-14T10:48:33.844Z,1005.58
2017-06-14T10:49:33.901Z,1005.49
2017-06-14T10:50:33.958Z,1005.45
2017-06-14T10:51:34.018Z,1005.75
2017-06-14T10:52:34.071Z,1005.73
2017-06-14T10:53:34.128Z,1005.6
2017-06-14T10:54:34.190Z,1005.73
2017-06-14T10:55:34.239Z,1005.65
2017-06-14T10:56:34.293Z,1005.65
2017-06-14T10:57:34.350Z,1005.36
2017-06-14T10:58:34.406Z,1005.63
2017-06-14T10:59:34.461Z,1005.64
2017-06-14T11:00:34.515Z,1005.62
2017-06-14T11:01:34.569Z,1005.4
2017-06-14T11:02:34.623Z,1005.57
2017-06-14T11:03:34.677Z,1005.51
2017-06-14T11:04:34.730Z,1005.47
2017-06-14T11:05:34.784Z,1005.43
2017-06-14T11:06:34.837Z,1005.34
2017-06-14T11:07:34.888Z,1005.29
2017-06-14T11:08:34.939Z,1005.26
2017-06-14T11:09:34.993Z,1005.24
2017-06-14T11:10:35.042Z,1005.16
2017-06-14T11:11:35.091Z,1005.19
2017-06-14T11:12:35.142Z,1005.19
2017-06-14T11:13:35.195Z,1005.13
2017-06-14T11:14:35.242Z,1005.15
2017-06-14T11:15:35.291Z,1005.08
2017-06-14T11:16:35.340Z,1004.99
2017-06-14T11:17:35.390Z,1004.94
2017-06-14T11:18:35.470Z,1004.94
2017-06-14T11:19:35.488Z,1004.94
2017-06-14T11:20:35.538Z,1004.94
2017-06-14T11:21:35.585Z,1004.91
2017-06-14T11:22:35.631Z,1004.91
2017-06-14T11:23:35.679Z,1004.83
2017-06-14T11:24:35.728Z,1004.89
2017-06-14T11:25:35.786Z,1004.87
2017-06-14T11:26:35.824Z,1004.9
2017-06-14T11:27:35.870Z,1004.87
2017-06-14T11:28:35.917Z,1004.92
2017-06-14T11:29:35.964Z,1004.88
2017-06-14T11:30:36.011Z,1004.85
2017-06-14T11:31:36.058Z,1004.85
2017-06-14T11:32:36.106Z,1004.81
2017-06-14T11:33:36.150Z,1004.81
2017-06-14T11:34:36.197Z,1004.76
2017-06-14T11:35:36.243Z,1004.75
2017-06-14T11:36:36.290Z,1004.72
2017-06-14T11:37:36.338Z,1004.76
2017-06-14T11:38:36.384Z,1004.71
2017-06-14T11:39:36.430Z,1004.79
2017-06-14T11:40:36.474Z,1004.74
2017-06-14T11:41:36.529Z,1004.77
2017-06-14T11:42:36.567Z,1004.74
2017-06-14T11:43:36.613Z,1004.76
2017-06-14T11:44:36.657Z,1004.73
2017-06-14T11:45:36.705Z,1004.72
2017-06-14T11:46:36.750Z,1004.7
2017-06-14T11:47:36.795Z,1004.63
2017-06-14T11:48:36.841Z,1004.6
2017-06-14T11:49:36.886Z,1004.62
2017-06-14T11:50:36.931Z,1004.56
2017-06-14T11:51:36.976Z,1004.6
2017-06-14T11:52:37.020Z,1004.57
2017-06-14T11:53:37.079Z,1004.57
2017-06-14T11:54:37.113Z,1004.59
2017-06-14T11:55:37.157Z,1004.6
2017-06-14T11:56:37.201Z,1004.59
2017-06-14T11:57:37.247Z,1004.61
2017-06-14T11:58:37.292Z,1004.63
2017-06-14T11:59:37.337Z,1004.61
2017-06-14T12:00:37.382Z,1004.66
2017-06-14T12:01:37.428Z,1004.6
2017-06-14T12:02:37.471Z,1004.63
2017-06-14T12:03:37.515Z,1004.65
2017-06-14T12:04:37.597Z,1004.63
2017-06-14T12:05:37.607Z,1004.61
2017-06-14T12:06:37.650Z,1004.58
2017-06-14T12:07:37.696Z,1004.56
2017-06-14T12:08:37.741Z,1004.54